createdAt,value
2023-01-03T00:00:53.913Z,20.83
2023-01-03T00:03:20.671Z,20.10
2023-01-03T00:05:48.353Z,20.00
2023-01-03T00:08:15.656Z,21.17
2023-01-03T00:10:42.300Z,19.63
2023-01-03T00:13:08.772Z,20.70
2023-01-03T00:15:36.265Z,20.20
2023-01-03T00:18:03.454Z,23.37
2023-01-03T00:20:30.090Z,24.40
2023-01-03T00:22:56.711Z,21.60
2023-01-03T00:25:23.459Z,18.37
2023-01-03T00:27:50.085Z,18.97
2023-01-03T00:30:16.854Z,19.13
2023-01-03T00:32:43.374Z,20.20
2023-01-03T00:35:10.021Z,22.07
2023-01-03T00:37:36.544Z,20.73
2023-01-03T00:40:04.359Z,21.40
2023-01-03T00:42:51.025Z,19.50
2023-01-03T00:45:20.080Z,18.90
2023-01-03T00:47:47.663Z,20.17
2023-01-03T00:50:14.116Z,21.90
2023-01-03T00:52:40.636Z,17.50
2023-01-03T00:55:07.646Z,20.70
2023-01-03T00:57:34.107Z,19.50
2023-01-03T01:00:00.714Z,26.00
2023-01-03T01:02:27.542Z,18.33
2023-01-03T01:04:54.341Z,20.10
2023-01-03T01:07:20.976Z,25.07
2023-01-03T01:09:47.617Z,23.93
2023-01-03T01:12:14.075Z,24.43
2023-01-03T01:14:40.720Z,18.03
2023-01-03T01:17:08.519Z,21.43
2023-01-03T01:19:39.059Z,18.03
2023-01-03T01:22:06.638Z,19.90
2023-01-03T01:24:33.633Z,21.13
2023-01-03T01:27:00.528Z,20.67
2023-01-03T01:29:27.634Z,17.93
2023-01-03T01:31:54.275Z,20.40
2023-01-03T01:34:20.884Z,20.03
2023-01-03T01:36:48.083Z,17.97
2023-01-03T01:39:19.087Z,18.50
2023-01-03T01:42:05.479Z,19.53
2023-01-03T01:44:44.812Z,19.20
2023-01-03T01:47:20.286Z,19.30
2023-01-03T01:49:49.457Z,24.53
2023-01-03T01:52:17.070Z,21.03
2023-01-03T01:54:44.022Z,20.33
2023-01-03T01:57:13.034Z,22.13
2023-01-03T01:59:39.544Z,26.47
2023-01-03T02:02:06.463Z,21.53
2023-01-03T02:04:35.745Z,17.67
2023-01-03T02:07:03.195Z,22.67
2023-01-03T02:09:32.406Z,19.40
2023-01-03T02:12:28.564Z,22.47
2023-01-03T02:15:07.984Z,17.53
2023-01-03T02:17:43.504Z,18.90
2023-01-03T02:20:19.071Z,18.30
2023-01-03T02:23:13.338Z,19.37
2023-01-03T02:26:13.604Z,22.70
2023-01-03T02:28:50.343Z,20.53
2023-01-03T02:31:25.480Z,21.50
2023-01-03T02:34:17.600Z,20.83
2023-01-03T02:37:00.927Z,20.47
2023-01-03T02:39:40.897Z,19.10
2023-01-03T02:42:47.723Z,20.77
2023-01-03T02:45:19.052Z,23.47
2023-01-03T02:48:01.481Z,19.93
2023-01-03T02:50:31.066Z,22.27
2023-01-03T02:53:02.498Z,19.60
2023-01-03T02:55:30.982Z,18.33
2023-01-03T02:58:06.907Z,23.73
2023-01-03T03:00:34.189Z,24.83
2023-01-03T03:03:06.784Z,21.10
2023-01-03T03:05:39.384Z,19.70
2023-01-03T03:08:07.028Z,23.20
2023-01-03T03:10:52.579Z,22.27
2023-01-03T03:13:45.986Z,20.17
2023-01-03T03:16:20.143Z,16.20
2023-01-03T03:19:00.654Z,19.47
2023-01-03T03:21:51.548Z,14.50
2023-01-03T03:24:40.558Z,20.80
2023-01-03T03:27:28.132Z,18.53
2023-01-03T03:29:56.220Z,21.03
2023-01-03T03:32:24.817Z,16.93
2023-01-03T03:34:53.333Z,18.60
2023-01-03T03:37:22.366Z,18.30
2023-01-03T03:40:07.786Z,16.13
2023-01-03T03:42:57.349Z,19.03
2023-01-03T03:45:30.393Z,25.60
2023-01-03T03:48:03.706Z,15.53
2023-01-03T03:50:46.884Z,16.57
2023-01-03T03:53:14.856Z,18.87
2023-01-03T03:55:45.055Z,17.13
2023-01-03T03:58:16.287Z,15.57
2023-01-03T04:00:43.517Z,15.40
2023-01-03T04:03:10.915Z,14.33
2023-01-03T04:05:40.482Z,14.43
2023-01-03T04:08:07.559Z,16.03
2023-01-03T04:10:38.039Z,13.60
2023-01-03T04:13:05.228Z,14.53
2023-01-03T04:15:31.819Z,12.50
2023-01-03T04:17:58.437Z,9.93
2023-01-03T04:20:25.458Z,9.10
2023-01-03T04:22:51.909Z,10.73
2023-01-03T04:25:18.835Z,8.10
2023-01-03T04:27:45.786Z,9.70
2023-01-03T04:30:13.216Z,7.57
2023-01-03T04:32:39.998Z,8.23
2023-01-03T04:35:07.078Z,7.43
2023-01-03T04:37:33.624Z,7.33
2023-01-03T04:40:00.182Z,6.23
2023-01-03T04:42:45.758Z,9.50
2023-01-03T04:45:12.427Z,7.57
2023-01-03T04:47:39.087Z,6.37
2023-01-03T04:50:06.211Z,6.80
2023-01-03T04:52:32.733Z,4.77
2023-01-03T04:54:59.444Z,3.47
2023-01-03T04:57:26.098Z,4.63
2023-01-03T04:59:52.628Z,5.67
2023-01-03T05:02:21.803Z,4.27
2023-01-03T05:04:48.520Z,3.77
2023-01-03T05:07:15.054Z,3.03
2023-01-03T05:09:41.585Z,4.57
2023-01-03T05:12:08.341Z,4.63
2023-01-03T05:14:35.765Z,5.00
2023-01-03T05:17:02.632Z,3.80
2023-01-03T05:19:29.407Z,6.47
2023-01-03T05:22:14.695Z,4.80
2023-01-03T05:24:59.865Z,5.13
2023-01-03T05:27:26.713Z,5.07
2023-01-03T05:29:53.669Z,3.37
2023-01-03T05:32:20.963Z,3.77
2023-01-03T05:34:47.530Z,5.87
2023-01-03T05:37:14.072Z,5.10
2023-01-03T05:39:40.710Z,4.70
2023-01-03T05:42:07.231Z,4.97
2023-01-03T05:44:34.826Z,8.23
2023-01-03T05:47:03.800Z,5.30
2023-01-03T05:49:30.372Z,5.07
2023-01-03T05:51:56.894Z,6.13
2023-01-03T05:54:23.489Z,7.47
2023-01-03T05:56:51.174Z,8.77
2023-01-03T05:59:19.083Z,7.10
2023-01-03T06:01:45.762Z,12.57
2023-01-03T06:04:12.561Z,8.80
2023-01-03T06:06:39.112Z,7.17
2023-01-03T06:09:06.070Z,8.93
2023-01-03T06:11:32.522Z,10.23
2023-01-03T06:13:59.053Z,10.97
2023-01-03T06:16:44.487Z,13.20
2023-01-03T06:19:11.258Z,7.10
2023-01-03T06:21:38.204Z,8.17
2023-01-03T06:24:05.482Z,8.03
2023-01-03T06:26:32.196Z,9.03
2023-01-03T06:28:59.253Z,8.67
2023-01-03T06:31:26.127Z,8.17
2023-01-03T06:33:52.655Z,9.20
2023-01-03T06:36:21.278Z,4.90
2023-01-03T06:38:47.986Z,5.83
2023-01-03T06:41:15.518Z,8.27
2023-01-03T06:43:42.262Z,5.40
2023-01-03T06:46:28.693Z,5.77
2023-01-03T06:49:13.930Z,3.07
2023-01-03T06:51:59.056Z,9.80
2023-01-03T06:54:27.606Z,3.93
2023-01-03T06:56:54.421Z,7.30
2023-01-03T06:59:21.899Z,5.17
2023-01-03T07:01:49.406Z,5.43
2023-01-03T07:04:16.167Z,4.57
2023-01-03T07:06:43.490Z,7.20
2023-01-03T07:09:11.163Z,5.37
2023-01-03T07:11:39.017Z,13.73
2023-01-03T07:14:06.917Z,7.20
2023-01-03T07:16:38.823Z,3.63
2023-01-03T07:19:06.528Z,3.80
2023-01-03T07:21:34.599Z,5.53
2023-01-03T07:24:02.439Z,5.50
2023-01-03T07:26:30.917Z,4.67
2023-01-03T07:28:58.266Z,8.07
2023-01-03T07:31:25.043Z,9.67
2023-01-03T07:33:53.183Z,6.80
2023-01-03T07:36:22.986Z,10.90
2023-01-03T07:38:49.638Z,9.97
2023-01-03T07:41:16.793Z,8.03
2023-01-03T07:43:45.961Z,8.97
2023-01-03T07:46:17.627Z,8.67
2023-01-03T07:48:46.099Z,9.63
2023-01-03T07:51:14.972Z,6.43
2023-01-03T07:53:41.945Z,9.70
2023-01-03T07:56:13.376Z,6.73
2023-01-03T07:58:44.300Z,8.67
2023-01-03T08:01:22.505Z,7.80
2023-01-03T08:03:49.493Z,8.53
2023-01-03T08:06:21.209Z,12.67
2023-01-03T08:09:07.911Z,8.40
2023-01-03T08:11:53.046Z,9.53
2023-01-03T08:14:25.652Z,10.23
2023-01-03T08:16:53.905Z,11.30
2023-01-03T08:19:20.563Z,11.40
2023-01-03T08:21:47.122Z,9.43
2023-01-03T08:24:16.978Z,8.50
2023-01-03T08:26:47.572Z,10.37
2023-01-03T08:29:14.464Z,13.97
2023-01-03T08:31:45.184Z,10.30
2023-01-03T08:34:18.563Z,13.97
2023-01-03T08:36:50.821Z,9.57
2023-01-03T08:39:20.544Z,14.03
2023-01-03T08:41:55.525Z,12.50
2023-01-03T08:44:22.276Z,15.80
2023-01-03T08:46:51.824Z,14.47
2023-01-03T08:49:21.073Z,11.00
2023-01-03T08:51:47.541Z,12.03
2023-01-03T08:54:14.277Z,9.87
2023-01-03T08:56:42.177Z,11.60
2023-01-03T08:59:08.748Z,12.50
2023-01-03T09:01:35.655Z,12.37
2023-01-03T09:04:02.531Z,13.10
2023-01-03T09:06:29.094Z,11.80
2023-01-03T09:08:55.669Z,8.93
2023-01-03T09:11:22.349Z,10.23
2023-01-03T09:13:48.849Z,8.80
2023-01-03T09:16:16.957Z,7.77
2023-01-03T09:18:43.858Z,8.90
2023-01-03T09:21:10.533Z,11.23
2023-01-03T09:23:37.572Z,4.87
2023-01-03T09:26:05.456Z,9.47
2023-01-03T09:28:32.109Z,6.80
2023-01-03T09:30:58.877Z,2.63
2023-01-03T09:33:25.639Z,8.27
2023-01-03T09:35:54.654Z,8.07
2023-01-03T09:38:22.427Z,3.90
2023-01-03T09:40:57.646Z,3.67
2023-01-03T09:43:33.924Z,4.13
2023-01-03T09:46:02.073Z,6.70
2023-01-03T09:48:36.622Z,2.83
2023-01-03T09:51:25.898Z,5.03
2023-01-03T09:54:11.038Z,5.30
2023-01-03T09:56:56.671Z,4.13
2023-01-03T09:59:41.725Z,3.47
2023-01-03T10:02:52.000Z,3.50
2023-01-03T10:05:53.944Z,5.77
2023-01-03T10:08:39.938Z,6.03
2023-01-03T10:11:09.737Z,6.87
2023-01-03T10:13:48.676Z,3.73
2023-01-03T10:16:35.745Z,5.77
2023-01-03T10:19:27.178Z,3.20
2023-01-03T10:22:04.660Z,3.63
2023-01-03T10:24:34.402Z,7.70
2023-01-03T10:27:08.520Z,5.83
2023-01-03T10:29:35.127Z,3.30
2023-01-03T10:32:08.137Z,2.80
2023-01-03T10:34:34.690Z,6.17
2023-01-03T10:37:01.885Z,2.63
2023-01-03T10:39:31.600Z,1.80
2023-01-03T10:41:59.973Z,6.90
2023-01-03T10:44:31.642Z,7.57
2023-01-03T10:47:15.059Z,4.87
2023-01-03T10:49:44.825Z,2.93
2023-01-03T10:52:19.962Z,6.40
2023-01-03T10:54:49.611Z,3.17
2023-01-03T10:57:43.785Z,2.77
2023-01-03T11:00:31.805Z,4.57
2023-01-03T11:03:27.870Z,3.47
2023-01-03T11:06:00.196Z,2.13
2023-01-03T11:08:47.627Z,3.13
2023-01-03T11:11:32.785Z,2.17
2023-01-03T11:14:17.397Z,4.00
2023-01-03T11:16:44.268Z,4.07
2023-01-03T11:19:16.480Z,4.40
2023-01-03T11:21:50.062Z,4.67
2023-01-03T11:24:30.249Z,7.43
2023-01-03T11:27:08.718Z,7.67
2023-01-03T11:29:51.433Z,6.07
2023-01-03T11:32:24.996Z,8.53
2023-01-03T11:35:24.005Z,2.73
2023-01-03T11:38:11.702Z,7.53
2023-01-03T11:41:00.099Z,3.93
2023-01-03T11:43:42.099Z,5.40
2023-01-03T11:46:40.019Z,6.63
2023-01-03T11:49:24.551Z,6.27
2023-01-03T11:52:20.077Z,3.93
2023-01-03T11:55:23.878Z,9.43
2023-01-03T11:57:56.951Z,6.23
2023-01-03T12:00:34.914Z,6.90
2023-01-03T12:03:02.591Z,5.33
2023-01-03T12:05:49.564Z,6.73
2023-01-03T12:08:30.138Z,10.30
2023-01-03T12:11:15.329Z,4.03
2023-01-03T12:13:49.192Z,4.63
2023-01-03T12:16:26.483Z,7.17
2023-01-03T12:18:59.210Z,6.53
2023-01-03T12:21:41.039Z,10.83
2023-01-03T12:24:33.554Z,5.00
2023-01-03T12:27:13.418Z,9.60
2023-01-03T12:29:46.049Z,7.60
2023-01-03T12:32:17.187Z,8.40
2023-01-03T12:34:50.653Z,4.73
2023-01-03T12:37:23.869Z,9.03
2023-01-03T12:40:01.902Z,6.27
2023-01-03T12:42:36.415Z,6.77
2023-01-03T12:45:14.975Z,6.70
2023-01-03T12:47:50.050Z,5.30
2023-01-03T12:50:30.305Z,8.00
2023-01-03T12:53:34.541Z,7.27
2023-01-03T12:56:38.459Z,6.07
2023-01-03T12:59:29.282Z,7.37
2023-01-03T13:02:07.186Z,5.17
2023-01-03T13:04:35.561Z,12.97
2023-01-03T13:07:02.064Z,5.57
2023-01-03T13:09:57.433Z,6.27
2023-01-03T13:12:29.800Z,4.97
2023-01-03T13:15:06.038Z,6.63
2023-01-03T13:17:43.134Z,9.13
2023-01-03T13:20:33.805Z,3.97
2023-01-03T13:23:01.583Z,3.97
2023-01-03T13:25:34.393Z,3.37
2023-01-03T13:28:05.760Z,12.60
2023-01-03T13:30:34.666Z,4.93
2023-01-03T13:33:24.278Z,4.83
2023-01-03T13:35:59.932Z,5.20
2023-01-03T13:38:32.150Z,5.60
2023-01-03T13:41:18.213Z,6.23
2023-01-03T13:43:49.024Z,6.37
2023-01-03T13:46:29.256Z,9.80
2023-01-03T13:49:04.139Z,6.37
2023-01-03T13:51:55.209Z,9.10
2023-01-03T13:54:21.700Z,9.07
2023-01-03T13:56:48.209Z,10.97
2023-01-03T13:59:14.790Z,13.07
2023-01-03T14:01:47.886Z,7.93
2023-01-03T14:04:33.700Z,9.70
2023-01-03T14:07:37.258Z,10.13
2023-01-03T14:10:24.491Z,7.63
2023-01-03T14:13:28.710Z,8.13
2023-01-03T14:16:16.301Z,11.70
2023-01-03T14:18:49.601Z,8.77
2023-01-03T14:21:41.384Z,9.67
2023-01-03T14:24:16.152Z,11.40
2023-01-03T14:26:42.786Z,9.33
2023-01-03T14:29:19.010Z,8.83
2023-01-03T14:31:48.223Z,17.87
2023-01-03T14:34:35.112Z,12.23
2023-01-03T14:37:22.270Z,8.77
2023-01-03T14:39:55.632Z,12.43
2023-01-03T14:42:22.789Z,10.43
2023-01-03T14:45:16.555Z,11.87
2023-01-03T14:47:43.938Z,13.43
2023-01-03T14:50:21.556Z,12.40
2023-01-03T14:52:52.312Z,19.03
2023-01-03T14:55:21.092Z,25.27
2023-01-03T14:57:49.110Z,23.70
2023-01-03T15:00:28.275Z,22.80
2023-01-03T15:02:59.331Z,26.27
2023-01-03T15:05:35.088Z,22.33
2023-01-03T15:08:22.330Z,26.37
2023-01-03T15:10:54.431Z,20.13
2023-01-03T15:13:28.851Z,21.70
2023-01-03T15:15:57.663Z,16.23
2023-01-03T15:18:25.936Z,19.80
2023-01-03T15:20:54.489Z,18.97
2023-01-03T15:23:39.599Z,14.87
2023-01-03T15:26:39.643Z,19.77
2023-01-03T15:29:06.171Z,22.47
2023-01-03T15:31:38.219Z,18.63
2023-01-03T15:34:29.327Z,23.97
2023-01-03T15:37:03.003Z,19.40
2023-01-03T15:39:41.842Z,25.97
2023-01-03T15:42:50.113Z,20.10
2023-01-03T15:45:22.699Z,20.60
2023-01-03T15:47:50.108Z,25.77
2023-01-03T15:50:19.015Z,24.13
2023-01-03T15:52:46.862Z,16.90
2023-01-03T15:55:14.479Z,22.23
2023-01-03T15:57:41.327Z,19.97
2023-01-03T16:00:10.980Z,26.53
2023-01-03T16:02:37.710Z,20.57
2023-01-03T16:05:04.605Z,26.87
2023-01-03T16:07:31.485Z,20.27
2023-01-03T16:09:58.025Z,24.00
2023-01-03T16:12:33.874Z,21.60
2023-01-03T16:15:00.764Z,30.73
2023-01-03T16:17:28.597Z,27.00
2023-01-03T16:19:56.659Z,28.60
2023-01-03T16:22:34.557Z,21.23
2023-01-03T16:25:02.345Z,16.33
2023-01-03T16:27:29.050Z,20.07
2023-01-03T16:29:55.653Z,18.27
2023-01-03T16:32:26.025Z,16.93
2023-01-03T16:34:52.774Z,19.60
2023-01-03T16:37:19.827Z,23.93
2023-01-03T16:39:48.689Z,21.03
2023-01-03T16:42:15.586Z,19.87
2023-01-03T16:44:49.259Z,18.47
2023-01-03T16:47:20.163Z,26.27
2023-01-03T16:49:50.597Z,24.77
2023-01-03T16:52:23.056Z,28.20
2023-01-03T16:54:50.161Z,27.07
2023-01-03T16:57:21.049Z,22.50
2023-01-03T16:59:48.571Z,26.23
2023-01-03T17:02:15.666Z,24.37
2023-01-03T17:04:42.304Z,26.83
2023-01-03T17:07:23.678Z,29.33
2023-01-03T17:09:51.374Z,26.07
2023-01-03T17:12:21.254Z,25.03
2023-01-03T17:14:52.072Z,17.70
2023-01-03T17:17:21.513Z,25.67
2023-01-03T17:20:06.013Z,29.07
2023-01-03T17:22:33.326Z,23.23
2023-01-03T17:24:59.903Z,23.30
2023-01-03T17:27:31.762Z,23.53
2023-01-03T17:30:02.652Z,29.90
2023-01-03T17:32:30.046Z,24.37
2023-01-03T17:34:56.597Z,19.73
2023-01-03T17:37:23.489Z,23.07
2023-01-03T17:39:55.120Z,17.23
2023-01-03T17:42:22.060Z,22.37
2023-01-03T17:45:09.271Z,19.40
2023-01-03T17:47:58.572Z,19.20
2023-01-03T17:50:25.764Z,23.23
2023-01-03T17:52:55.881Z,20.73
2023-01-03T17:55:25.134Z,21.57
2023-01-03T17:57:51.985Z,17.53
2023-01-03T18:00:21.647Z,20.17
2023-01-03T18:02:48.667Z,17.87
2023-01-03T18:05:21.507Z,27.67
2023-01-03T18:07:53.018Z,18.33
2023-01-03T18:10:26.815Z,21.03
2023-01-03T18:12:53.597Z,19.60
2023-01-03T18:15:21.799Z,26.73
2023-01-03T18:17:48.947Z,24.73
2023-01-03T18:20:17.718Z,22.60
2023-01-03T18:22:45.472Z,27.77
2023-01-03T18:25:22.045Z,28.97
2023-01-03T18:27:54.304Z,21.33
2023-01-03T18:30:21.049Z,22.00
2023-01-03T18:32:47.798Z,27.30
2023-01-03T18:35:20.764Z,24.17
2023-01-03T18:37:53.915Z,32.10
2023-01-03T18:40:23.320Z,32.40
2023-01-03T18:43:08.190Z,27.37
2023-01-03T18:45:35.353Z,30.23
2023-01-03T18:48:02.027Z,30.23
2023-01-03T18:50:28.814Z,22.73
2023-01-03T18:52:56.019Z,30.37
2023-01-03T18:55:25.360Z,30.23
2023-01-03T18:57:52.476Z,28.30
2023-01-03T19:00:21.919Z,25.70
2023-01-03T19:02:49.055Z,29.47
2023-01-03T19:05:15.975Z,26.00
2023-01-03T19:07:43.946Z,23.57
2023-01-03T19:10:22.849Z,36.30
2023-01-03T19:12:51.466Z,23.43
2023-01-03T19:15:24.467Z,22.63
2023-01-03T19:17:51.460Z,23.83
2023-01-03T19:20:23.234Z,29.40
2023-01-03T19:22:53.717Z,23.67
2023-01-03T19:25:24.853Z,24.47
2023-01-03T19:27:53.443Z,30.60
2023-01-03T19:30:24.453Z,29.80
2023-01-03T19:32:53.660Z,25.87
2023-01-03T19:35:21.922Z,24.30
2023-01-03T19:37:48.575Z,26.57
2023-01-03T19:40:17.729Z,25.83
2023-01-03T19:42:50.625Z,24.53
2023-01-03T19:45:43.070Z,27.97
2023-01-03T19:48:19.153Z,26.27
2023-01-03T19:50:46.069Z,24.43
2023-01-03T19:53:12.687Z,23.07
2023-01-03T19:55:41.750Z,26.73
2023-01-03T19:58:29.548Z,20.43
2023-01-03T20:00:56.636Z,20.07
2023-01-03T20:03:36.298Z,23.10
2023-01-03T20:06:03.134Z,27.60
2023-01-03T20:08:29.738Z,29.20
2023-01-03T20:10:56.637Z,23.77
2023-01-03T20:13:25.837Z,25.33
2023-01-03T20:15:55.651Z,32.60
2023-01-03T20:18:30.885Z,21.03
2023-01-03T20:21:05.532Z,22.63
2023-01-03T20:23:35.369Z,27.03
2023-01-03T20:26:02.448Z,20.97
2023-01-03T20:28:29.618Z,26.10
2023-01-03T20:30:59.987Z,25.20
2023-01-03T20:33:27.842Z,22.63
2023-01-03T20:36:20.071Z,23.23
2023-01-03T20:38:45.661Z,25.97
2023-01-03T20:41:14.502Z,32.33
2023-01-03T20:43:44.834Z,28.73
2023-01-03T20:46:20.772Z,22.97
2023-01-03T20:48:56.029Z,21.87
2023-01-03T20:51:24.461Z,22.67
2023-01-03T20:53:54.665Z,18.00
2023-01-03T20:56:22.361Z,18.53
2023-01-03T20:58:49.141Z,17.90
2023-01-03T21:01:15.781Z,21.53
2023-01-03T21:03:42.401Z,20.80
2023-01-03T21:06:23.626Z,19.60
2023-01-03T21:08:56.667Z,19.20
2023-01-03T21:11:27.032Z,16.27
2023-01-03T21:13:54.702Z,19.80
2023-01-03T21:16:29.557Z,15.23
2023-01-03T21:18:56.170Z,19.77
2023-01-03T21:21:23.750Z,24.10
2023-01-03T21:23:50.496Z,18.80
2023-01-03T21:26:17.036Z,18.97
2023-01-03T21:28:43.599Z,18.23
2023-01-03T21:31:17.242Z,28.00
2023-01-03T21:33:43.974Z,19.10
2023-01-03T21:36:21.118Z,21.20
2023-01-03T21:38:49.777Z,20.20
2023-01-03T21:41:20.166Z,26.83
2023-01-03T21:43:46.874Z,27.73
2023-01-03T21:46:21.177Z,21.33
2023-01-03T21:48:47.979Z,21.60
2023-01-03T21:51:20.712Z,18.33
2023-01-03T21:53:53.966Z,19.57
2023-01-03T21:56:23.270Z,21.40
2023-01-03T21:58:50.320Z,21.07
2023-01-03T22:01:23.969Z,21.00
2023-01-03T22:04:10.227Z,22.33
2023-01-03T22:06:37.482Z,19.00
2023-01-03T22:09:06.133Z,23.33
2023-01-03T22:11:32.751Z,17.93
2023-01-03T22:14:00.301Z,21.23
2023-01-03T22:16:27.140Z,16.60
2023-01-03T22:18:53.749Z,15.33
2023-01-03T22:21:21.276Z,16.83
2023-01-03T22:23:47.809Z,14.43
2023-01-03T22:26:15.508Z,18.43
2023-01-03T22:28:44.068Z,14.87
2023-01-03T22:31:16.423Z,21.10
2023-01-03T22:33:44.562Z,13.00
2023-01-03T22:36:11.270Z,15.63
2023-01-03T22:38:38.137Z,17.70
2023-01-03T22:41:14.834Z,18.67
2023-01-03T22:43:41.771Z,20.03
2023-01-03T22:46:10.095Z,16.03
2023-01-03T22:48:37.093Z,25.47
2023-01-03T22:51:05.529Z,17.50
2023-01-03T22:53:39.750Z,16.43
2023-01-03T22:56:08.045Z,25.60
2023-01-03T22:58:35.546Z,15.63
2023-01-03T23:01:16.517Z,19.73
2023-01-03T23:03:44.586Z,14.43
2023-01-03T23:06:15.597Z,22.43
2023-01-03T23:08:42.279Z,18.10
2023-01-03T23:11:33.840Z,16.97
2023-01-03T23:14:06.764Z,14.73
2023-01-03T23:16:33.392Z,14.47
2023-01-03T23:19:03.975Z,17.60
2023-01-03T23:21:30.591Z,14.23
2023-01-03T23:23:57.090Z,19.47
2023-01-03T23:26:23.827Z,20.77
2023-01-03T23:28:57.553Z,20.00
2023-01-03T23:31:26.344Z,17.20
2023-01-03T23:33:57.366Z,21.40
2023-01-03T23:36:24.093Z,20.27
2023-01-03T23:38:50.628Z,16.87
2023-01-03T23:41:17.822Z,19.00
2023-01-03T23:43:44.267Z,17.90
2023-01-03T23:46:18.816Z,19.50
2023-01-03T23:48:45.488Z,18.87
2023-01-03T23:51:12.618Z,17.57
2023-01-03T23:53:41.714Z,22.00
2023-01-03T23:56:11.384Z,27.57
2023-01-03T23:58:37.875Z,25.10
